キガリ の空港の天気 - METARとTAF

キガリ国際空港 ( HRYR / KGL ) - ルワンダ キガリ
飛行場実況気象(Metar)
観測時間01/29 10:00 CAT (01/29 08:00 UTC)
風向・風速不定 1m/s
視程10km以上
天気現象
少しの雲 雲底高度 790m
気温24℃
湿度57%
気圧1021hPa
METARHRYR 290800Z VRB02KT 9999 FEW026 24/15 Q1021 NOSIG
過去の天気等 Google飛行場航空写真 Wunderground天気予報

過去48時間のMETAR

飛行場予報(TAF)
発表時間: 1/29 07:00 CAT (1/29 05:00 UTC)
予報対象時間: 29日8時 CAT ~ 30日14時 CAT
風向・風速北北東 3m/s
視程10km以上
全天の4割程度の雲 雲底高度 760m
全天の8割程度の雲 雲底高度 3050m
29日12時 CAT ~ 29日18時 CAT に一時的に
風向・風速東 4m/s
天気現象弱い雷雨
少しの積乱雲 雲底高度 700m
全天の8割程度の雲 雲底高度 760m
29日21時 CAT ~ 29日24時 CAT に徐々に
風向・風速北北西 3m/s
天気現象運行に影響にある天気現象が終了
全天の4割程度の雲 雲底高度 760m
全天の4割程度の雲 雲底高度 3050m
30日9時 CAT ~ 30日13時 CAT に一時的に
風向・風速東北東 3m/s
全天の8割程度の雲 雲底高度 700m
HRYR 290500Z 2906/3012 02005KT 9999 SCT025 BKN100
TEMPO 2910/2916 08008KT -TSRA FEW023CB BKN025
BECMG 2919/2922 34005KT NSW SCT025 SCT100
TEMPO 3007/3011 07005KT BKN023